Time;durP1;ratioP1;P1;durP2;ratioP2;P2;SDS_P1;SDS_P2;PMS_P1;PMS_P2;Temp;Humidity;BMP_temperature;BMP_pressure;BME280_temperature;BME280_humidity;BME280_pressure;Samples;Min_cycle;Max_cycle;Signal;HPM_P1;HPM_P2
2022/08/31 00:04:25;;;;;;;1.65;0.60;;;16.40;99.90;;;;;;5050253;28;20053;-73
2022/08/31 00:06:51;;;;;;;1.45;0.60;;;16.30;99.90;;;;;;5033647;28;20045;-73
2022/08/31 00:09:17;;;;;;;0.50;0.50;;;16.30;99.90;;;;;;5030307;28;20714;-73
2022/08/31 00:11:43;;;;;;;0.82;0.40;;;16.30;99.90;;;;;;5028160;28;20462;-73
2022/08/31 00:14:09;;;;;;;2.33;0.55;;;16.30;99.90;;;;;;4995120;28;20111;-73
2022/08/31 00:16:38;;;;;;;1.02;0.60;;;16.20;99.90;;;;;;5033413;28;20087;-73
2022/08/31 00:19:04;;;;;;;3.60;0.60;;;16.20;99.90;;;;;;5016126;28;20041;-73
2022/08/31 00:21:30;;;;;;;0.88;0.52;;;16.10;99.90;;;;;;5032093;28;20049;-72
2022/08/31 00:23:57;;;;;;;1.15;0.50;;;16.10;99.90;;;;;;5032571;28;20045;-73
2022/08/31 00:26:23;;;;;;;2.10;0.70;;;16.10;99.90;;;;;;5033555;28;20041;-72
2022/08/31 00:28:49;;;;;;;1.13;0.50;;;16.10;99.90;;;;;;5032259;28;20056;-73
2022/08/31 00:31:16;;;;;;;1.50;0.60;;;16.00;99.90;;;;;;5027106;28;20038;-73
2022/08/31 00:33:42;;;;;;;0.57;0.47;;;16.00;99.90;;;;;;5032216;28;20638;-73
2022/08/31 00:36:11;;;;;;;1.35;0.55;;;15.90;99.90;;;;;;5016532;28;20064;-72
2022/08/31 00:38:39;;;;;;;0.60;0.45;;;15.90;99.90;;;;;;5032534;28;20068;-73
2022/08/31 00:41:07;;;;;;;3.00;0.50;;;15.90;99.90;;;;;;5010694;28;20045;-73
2022/08/31 00:43:33;;;;;;;1.50;0.50;;;15.90;99.90;;;;;;5032907;28;20389;-73
2022/08/31 00:45:59;;;;;;;2.15;0.40;;;15.80;99.90;;;;;;5033185;28;20045;-73
2022/08/31 00:48:25;;;;;;;0.85;0.50;;;15.70;99.90;;;;;;5032831;28;20049;-73
2022/08/31 00:50:51;;;;;;;1.52;0.60;;;15.70;99.90;;;;;;4998648;28;20470;-73
2022/08/31 00:53:18;;;;;;;0.80;0.40;;;15.70;99.90;;;;;;5032342;28;20044;-73
2022/08/31 00:55:44;;;;;;;0.95;0.50;;;15.70;99.90;;;;;;5016481;28;20107;-73
2022/08/31 00:58:11;;;;;;;0.50;0.47;;;15.60;99.90;;;;;;5033087;28;20048;-72
2022/08/31 01:00:41;;;;;;;0.80;0.50;;;15.60;99.90;;;;;;5009302;28;20099;-73
2022/08/31 01:03:08;;;;;;;5.55;0.65;;;15.50;99.90;;;;;;5015569;28;20140;-73
2022/08/31 01:05:35;;;;;;;2.50;0.50;;;15.40;99.90;;;;;;5032383;28;20068;-73
2022/08/31 01:08:03;;;;;;;0.75;0.50;;;15.40;99.90;;;;;;5029253;28;20068;-72
2022/08/31 01:10:37;;;;;;;1.40;0.40;;;15.40;99.90;;;;;;5030734;28;20049;-73
2022/08/31 01:13:04;;;;;;;3.40;0.63;;;15.30;99.90;;;;;;5031589;28;20418;-73
2022/08/31 01:15:31;;;;;;;0.60;0.50;;;15.30;99.90;;;;;;5015998;28;20080;-73
2022/08/31 01:18:00;;;;;;;0.50;0.45;;;15.20;99.90;;;;;;5015123;28;20042;-72
2022/08/31 01:20:47;;;;;;;1.10;0.40;;;15.20;99.90;;;;;;5032523;28;20041;-72
2022/08/31 01:23:30;;;;;;;0.95;0.43;;;15.10;99.90;;;;;;5031300;28;20052;-73
2022/08/31 01:25:57;;;;;;;1.85;0.60;;;15.10;99.90;;;;;;5032177;28;20092;-73
2022/08/31 01:28:24;;;;;;;0.55;0.50;;;15.00;99.90;;;;;;5032064;28;20045;-73
2022/08/31 01:31:04;;;;;;;0.70;0.40;;;14.90;99.90;;;;;;5029700;28;20041;-73
2022/08/31 01:33:31;;;;;;;1.00;0.60;;;15.00;99.90;;;;;;5031321;28;20128;-73
2022/08/31 01:35:58;;;;;;;1.08;0.77;;;14.90;99.90;;;;;;5032191;28;20291;-73
2022/08/31 01:38:25;;;;;;;0.88;0.52;;;14.80;99.90;;;;;;5030970;28;20120;-73
2022/08/31 01:40:55;;;;;;;1.05;0.80;;;14.80;99.90;;;;;;5027913;28;20369;-73
2022/08/31 01:43:21;;;;;;;0.75;0.60;;;14.80;99.90;;;;;;5028586;28;20041;-73
2022/08/31 01:45:47;;;;;;;1.75;0.70;;;14.80;99.90;;;;;;4998544;28;20079;-73
2022/08/31 01:48:13;;;;;;;1.85;0.77;;;14.70;99.90;;;;;;5031119;28;20073;-73
2022/08/31 01:50:39;;;;;;;0.80;0.50;;;14.70;99.90;;;;;;5011949;28;20045;-73
2022/08/31 01:53:05;;;;;;;0.75;0.60;;;14.70;99.90;;;;;;5023111;28;20042;-73
2022/08/31 01:55:31;;;;;;;1.85;0.65;;;14.70;99.90;;;;;;5031639;28;20132;-73
2022/08/31 01:57:58;;;;;;;1.48;0.60;;;14.60;99.90;;;;;;5031952;28;20045;-73
2022/08/31 02:00:24;;;;;;;1.27;0.70;;;14.60;99.90;;;;;;4997807;28;20419;-73
2022/08/31 02:02:50;;;;;;;0.98;0.60;;;14.60;99.90;;;;;;5012873;28;20358;-73
2022/08/31 02:05:16;;;;;;;2.00;0.60;;;14.50;99.90;;;;;;5031052;28;20060;-73
2022/08/31 02:07:42;;;;;;;0.90;0.60;;;14.50;99.90;;;;;;5015138;28;20129;-73
2022/08/31 02:10:08;;;;;;;0.90;0.60;;;14.50;99.90;;;;;;4995708;28;20271;-73
2022/08/31 02:12:34;;;;;;;0.57;0.50;;;14.50;99.90;;;;;;5014032;28;20523;-74
2022/08/31 02:15:00;;;;;;;0.75;0.60;;;14.50;99.90;;;;;;5028098;28;20046;-73
2022/08/31 02:17:26;;;;;;;0.50;0.50;;;14.50;99.90;;;;;;4995833;28;20068;-73
2022/08/31 02:19:52;;;;;;;1.42;0.77;;;14.40;99.90;;;;;;5003006;28;20068;-73
2022/08/31 02:22:18;;;;;;;1.20;0.80;;;14.40;99.90;;;;;;5011954;28;20046;-73
2022/08/31 02:24:44;;;;;;;1.10;0.70;;;14.40;99.90;;;;;;5007814;28;20053;-73
2022/08/31 02:27:09;;;;;;;1.55;0.60;;;14.30;99.90;;;;;;5025118;28;20125;-73
2022/08/31 02:29:35;;;;;;;0.90;0.70;;;14.30;99.90;;;;;;5030780;28;20037;-73
2022/08/31 02:32:01;;;;;;;1.95;0.65;;;14.30;99.90;;;;;;5015034;28;20128;-72
2022/08/31 02:34:28;;;;;;;0.85;0.70;;;14.20;99.90;;;;;;5026576;28;20044;-72
2022/08/31 02:36:54;;;;;;;1.60;0.70;;;14.20;99.90;;;;;;5029605;28;20440;-73
2022/08/31 02:39:20;;;;;;;0.80;0.70;;;14.20;99.90;;;;;;5030191;28;20042;-73
2022/08/31 02:41:46;;;;;;;0.73;0.60;;;14.10;99.90;;;;;;4998697;28;20123;-73
2022/08/31 02:44:12;;;;;;;0.80;0.65;;;14.10;99.90;;;;;;5013474;28;20037;-73
2022/08/31 02:46:38;;;;;;;1.10;0.47;;;14.10;99.90;;;;;;5034568;28;20049;-73
2022/08/31 02:49:03;;;;;;;2.30;0.52;;;14.10;99.90;;;;;;5018473;28;20046;-73
2022/08/31 02:51:29;;;;;;;3.92;0.70;;;14.10;99.90;;;;;;5034103;28;20121;-73
2022/08/31 02:53:55;;;;;;;1.27;0.60;;;14.10;99.90;;;;;;5017881;28;20072;-73
2022/08/31 02:56:22;;;;;;;1.65;0.75;;;14.10;99.90;;;;;;5035144;28;20363;-73
2022/08/31 02:58:53;;;;;;;0.52;0.52;;;14.10;99.90;;;;;;5028131;28;20041;-73
2022/08/31 03:01:21;;;;;;;0.88;0.68;;;14.10;99.90;;;;;;5028050;28;20580;-73
2022/08/31 03:03:47;;;;;;;1.92;0.50;;;14.00;99.90;;;;;;5031999;28;20049;-73
2022/08/31 03:06:13;;;;;;;2.00;0.50;;;14.00;99.90;;;;;;5030250;28;20049;-73
2022/08/31 03:08:40;;;;;;;0.98;0.50;;;14.00;99.90;;;;;;5028886;28;20046;-73
2022/08/31 03:11:07;;;;;;;1.20;0.60;;;13.90;99.90;;;;;;5007912;28;20425;-73
2022/08/31 03:13:35;;;;;;;1.95;0.73;;;13.90;99.90;;;;;;5016936;28;20124;-73
2022/08/31 03:16:01;;;;;;;1.83;0.68;;;13.90;99.90;;;;;;5016171;28;20049;-73
2022/08/31 03:18:27;;;;;;;2.55;0.70;;;13.90;99.90;;;;;;5017529;28;20045;-73
2022/08/31 03:20:52;;;;;;;0.82;0.68;;;13.90;99.90;;;;;;5032557;28;20052;-73
2022/08/31 03:23:18;;;;;;;1.15;0.65;;;13.90;99.90;;;;;;5018282;28;20109;-73
2022/08/31 03:25:44;;;;;;;0.95;0.63;;;13.80;99.90;;;;;;5000137;28;20111;-73
2022/08/31 03:28:11;;;;;;;3.05;0.70;;;13.80;99.90;;;;;;5033654;28;20045;-73
2022/08/31 03:30:37;;;;;;;0.85;0.65;;;13.80;99.90;;;;;;5016152;28;20211;-73
2022/08/31 03:33:02;;;;;;;0.85;0.80;;;13.80;99.90;;;;;;5006583;28;20136;-73
2022/08/31 03:35:29;;;;;;;1.13;0.80;;;13.80;99.90;;;;;;5049217;28;20116;-72
2022/08/31 03:37:56;;;;;;;0.75;0.73;;;13.80;99.90;;;;;;5001340;28;20064;-72
2022/08/31 03:40:22;;;;;;;2.08;0.80;;;13.80;99.90;;;;;;5034268;28;20037;-73
2022/08/31 03:42:48;;;;;;;0.80;0.80;;;13.80;99.90;;;;;;5033192;28;20034;-73
2022/08/31 03:45:14;;;;;;;1.02;0.70;;;13.70;99.90;;;;;;5018873;28;20041;-73
2022/08/31 03:47:40;;;;;;;1.45;0.90;;;13.70;99.90;;;;;;5015761;28;20044;-73
2022/08/31 03:50:09;;;;;;;0.85;0.75;;;13.70;99.90;;;;;;5032991;28;20092;-73
2022/08/31 03:52:35;;;;;;;0.93;0.75;;;13.70;99.90;;;;;;5033539;28;20543;-73
2022/08/31 03:55:02;;;;;;;3.38;0.70;;;13.70;99.90;;;;;;5017680;28;20041;-73
2022/08/31 03:57:28;;;;;;;1.63;0.70;;;13.70;99.90;;;;;;5031274;28;20477;-72
2022/08/31 03:59:56;;;;;;;0.80;0.80;;;13.70;99.90;;;;;;5017533;28;20073;-73
2022/08/31 04:02:23;;;;;;;1.67;0.88;;;13.70;99.90;;;;;;5015824;28;20038;-73
2022/08/31 04:04:53;;;;;;;0.80;0.70;;;13.70;99.90;;;;;;5029945;28;20383;-73
2022/08/31 04:07:20;;;;;;;1.67;0.63;;;13.70;99.90;;;;;;4998795;28;20129;-73
2022/08/31 04:09:47;;;;;;;1.60;0.70;;;13.70;99.90;;;;;;5033472;28;20037;-73
2022/08/31 04:12:14;;;;;;;1.20;0.60;;;13.70;99.90;;;;;;5031716;28;20067;-73
2022/08/31 04:14:41;;;;;;;1.40;0.68;;;13.60;99.90;;;;;;5031653;28;20045;-73
2022/08/31 04:17:10;;;;;;;0.57;0.50;;;13.60;99.90;;;;;;5015657;28;20049;-73
2022/08/31 04:19:36;;;;;;;1.42;0.60;;;13.60;99.90;;;;;;5032541;28;20107;-73
2022/08/31 04:22:02;;;;;;;1.55;0.75;;;13.70;99.90;;;;;;5000311;28;20045;-73
2022/08/31 04:24:28;;;;;;;1.42;0.73;;;13.60;99.90;;;;;;5012687;28;20038;-73
2022/08/31 04:26:54;;;;;;;5.13;1.00;;;13.60;99.90;;;;;;5046702;28;20136;-73
2022/08/31 04:29:20;;;;;;;0.95;0.80;;;13.60;99.90;;;;;;5031167;28;20045;-72
2022/08/31 04:31:46;;;;;;;0.80;0.50;;;13.60;99.90;;;;;;5014412;28;20045;-73
2022/08/31 04:34:12;;;;;;;0.95;0.55;;;13.60;99.90;;;;;;5031077;28;20045;-73
2022/08/31 04:36:38;;;;;;;0.77;0.60;;;13.60;99.90;;;;;;5031196;28;20060;-73
2022/08/31 04:39:06;;;;;;;1.92;0.90;;;13.60;99.90;;;;;;5032166;28;20049;-73
2022/08/31 04:41:35;;;;;;;1.10;0.88;;;13.60;99.90;;;;;;5016654;28;20056;-73
2022/08/31 04:44:02;;;;;;;1.70;0.80;;;13.50;99.90;;;;;;5032728;28;20037;-73
2022/08/31 04:46:29;;;;;;;1.10;0.52;;;13.50;99.90;;;;;;5032927;28;20478;-72
2022/08/31 04:48:56;;;;;;;0.70;0.70;;;13.50;99.90;;;;;;5029952;28;20053;-73
2022/08/31 04:51:25;;;;;;;2.22;0.80;;;13.50;99.90;;;;;;5032874;28;20042;-72
2022/08/31 04:53:52;;;;;;;2.35;0.93;;;13.60;99.90;;;;;;5032005;28;20033;-73
2022/08/31 04:56:24;;;;;;;0.90;0.80;;;13.50;99.90;;;;;;5019283;28;20084;-73
2022/08/31 04:58:52;;;;;;;0.90;0.60;;;13.50;99.90;;;;;;5030360;28;20073;-73
2022/08/31 05:01:21;;;;;;;0.80;0.68;;;13.50;99.90;;;;;;5016098;28;20613;-73
2022/08/31 05:03:51;;;;;;;1.08;0.70;;;13.50;99.90;;;;;;5032273;28;20049;-73
2022/08/31 05:06:20;;;;;;;2.47;0.75;;;13.50;99.90;;;;;;5013340;28;20049;-73
2022/08/31 05:08:46;;;;;;;1.02;0.80;;;13.50;99.90;;;;;;5017548;28;20041;-73
2022/08/31 05:11:16;;;;;;;1.20;0.77;;;13.50;99.90;;;;;;5014479;28;20120;-73
2022/08/31 05:13:43;;;;;;;1.10;0.70;;;13.60;99.90;;;;;;5031693;28;20118;-73
2022/08/31 05:16:11;;;;;;;0.98;0.70;;;13.50;99.90;;;;;;5020555;28;20038;-73
2022/08/31 05:18:38;;;;;;;0.95;0.80;;;13.60;99.90;;;;;;5029772;28;20644;-73
2022/08/31 05:21:09;;;;;;;1.02;0.63;;;13.60;99.90;;;;;;5014351;28;20045;-73
2022/08/31 05:23:35;;;;;;;1.45;0.90;;;13.60;99.90;;;;;;5015670;28;20048;-73
2022/08/31 05:26:01;;;;;;;2.70;0.88;;;13.60;99.90;;;;;;5029557;28;20042;-73
2022/08/31 05:28:27;;;;;;;3.88;1.00;;;13.60;99.90;;;;;;5028776;28;20544;-73
2022/08/31 05:30:53;;;;;;;1.10;0.90;;;13.70;99.90;;;;;;5030849;28;20049;-73
2022/08/31 05:33:19;;;;;;;2.13;0.93;;;13.70;99.90;;;;;;5015878;28;20478;-73
2022/08/31 05:35:47;;;;;;;2.08;1.15;;;13.70;99.90;;;;;;5031725;28;20494;-73
2022/08/31 05:38:12;;;;;;;2.25;0.90;;;13.70;99.90;;;;;;5031853;28;20068;-73
2022/08/31 05:40:38;;;;;;;1.33;1.10;;;13.80;99.90;;;;;;5030813;28;20474;-73
2022/08/31 05:43:04;;;;;;;1.73;1.00;;;13.90;99.90;;;;;;5014724;28;20045;-73
2022/08/31 05:45:30;;;;;;;1.05;0.95;;;13.90;99.90;;;;;;5030235;28;20041;-72
2022/08/31 05:47:56;;;;;;;2.15;1.00;;;13.90;99.90;;;;;;5031382;28;20037;-73
2022/08/31 05:50:21;;;;;;;1.63;1.00;;;14.00;99.90;;;;;;5032037;28;20078;-73
2022/08/31 05:52:47;;;;;;;1.38;1.20;;;14.10;99.90;;;;;;5015580;28;20099;-73
2022/08/31 05:55:13;;;;;;;1.33;1.15;;;14.10;99.90;;;;;;4997329;28;20052;-73
2022/08/31 05:57:39;;;;;;;1.67;1.30;;;14.20;99.90;;;;;;5015213;28;20050;-73
2022/08/31 06:00:07;;;;;;;1.35;1.17;;;14.30;99.90;;;;;;4994777;28;20375;-73
2022/08/31 06:02:34;;;;;;;1.20;1.00;;;14.40;99.90;;;;;;5012811;28;20046;-73
2022/08/31 06:05:00;;;;;;;2.30;1.10;;;14.40;99.90;;;;;;5025621;28;20092;-73
2022/08/31 06:07:26;;;;;;;1.35;1.05;;;14.50;99.90;;;;;;4994672;28;20073;-73
2022/08/31 06:09:52;;;;;;;1.55;1.10;;;14.60;99.90;;;;;;5013259;28;20064;-73
2022/08/31 06:12:19;;;;;;;1.40;1.00;;;14.70;99.90;;;;;;5028615;28;20056;-73
2022/08/31 06:14:45;;;;;;;4.13;1.00;;;14.80;99.90;;;;;;5030530;28;20478;-73
2022/08/31 06:17:12;;;;;;;2.40;1.10;;;14.90;99.90;;;;;;5029812;28;20045;-73
2022/08/31 06:19:38;;;;;;;1.40;0.77;;;15.00;99.90;;;;;;5001119;28;20104;-72
2022/08/31 06:22:04;;;;;;;1.55;1.10;;;15.10;99.90;;;;;;5030382;28;20041;-73
2022/08/31 06:24:30;;;;;;;1.10;0.90;;;15.20;99.90;;;;;;5016691;28;20041;-73
2022/08/31 06:26:57;;;;;;;1.60;1.00;;;15.30;99.90;;;;;;5033894;28;20095;-73
2022/08/31 06:29:23;;;;;;;1.63;0.88;;;15.40;99.90;;;;;;5033011;28;20540;-72
2022/08/31 06:31:49;;;;;;;0.93;0.80;;;15.50;99.90;;;;;;5032040;28;20129;-73
2022/08/31 06:34:17;;;;;;;1.00;0.80;;;15.60;99.90;;;;;;5034816;28;20436;-73
2022/08/31 06:36:43;;;;;;;1.60;0.80;;;15.70;99.90;;;;;;5033245;28;20045;-72
2022/08/31 06:39:11;;;;;;;2.47;0.80;;;15.80;99.90;;;;;;5017322;28;20041;-72
2022/08/31 06:41:39;;;;;;;1.77;0.77;;;15.90;99.90;;;;;;5002349;28;20065;-72
2022/08/31 06:44:08;;;;;;;0.82;0.70;;;16.00;99.90;;;;;;5018909;28;20397;-73
2022/08/31 06:46:37;;;;;;;2.25;0.77;;;16.10;99.90;;;;;;5032826;28;20136;-74
2022/08/31 06:49:04;;;;;;;2.67;0.63;;;16.20;99.90;;;;;;5030023;28;20053;-73
2022/08/31 06:51:35;;;;;;;0.70;0.70;;;16.30;99.90;;;;;;5015339;28;20056;-72
2022/08/31 06:54:10;;;;;;;1.70;0.70;;;16.30;99.90;;;;;;5017989;28;20136;-73
2022/08/31 06:56:36;;;;;;;1.40;0.85;;;16.50;99.90;;;;;;5034090;28;20091;-72
2022/08/31 06:59:05;;;;;;;1.08;0.60;;;16.40;99.90;;;;;;5031526;28;20048;-73
2022/08/31 07:01:32;;;;;;;1.20;0.60;;;16.60;99.90;;;;;;4998757;28;20050;-72
2022/08/31 07:04:00;;;;;;;0.98;0.80;;;16.70;99.90;;;;;;4998722;28;20543;-73
2022/08/31 07:06:29;;;;;;;0.70;0.68;;;16.80;99.90;;;;;;5041642;28;20045;-73
2022/08/31 07:08:58;;;;;;;1.90;0.70;;;16.80;99.90;;;;;;5014731;28;20044;-73
2022/08/31 07:11:27;;;;;;;2.33;0.80;;;16.90;99.90;;;;;;5020474;28;20049;-72
2022/08/31 07:13:54;;;;;;;1.85;0.70;;;17.00;99.90;;;;;;5015165;28;20052;-72
2022/08/31 07:16:22;;;;;;;0.98;0.82;;;17.10;99.90;;;;;;5027564;28;20056;-73
2022/08/31 07:18:51;;;;;;;1.23;0.70;;;17.10;99.90;;;;;;5032893;28;20049;-72
2022/08/31 07:21:29;;;;;;;1.98;0.80;;;17.30;99.90;;;;;;5034753;28;20046;-72
2022/08/31 07:23:58;;;;;;;1.55;0.63;;;17.30;99.90;;;;;;5015922;28;20037;-72
2022/08/31 07:26:44;;;;;;;3.95;0.60;;;17.40;99.90;;;;;;4998794;28;20056;-72
2022/08/31 07:29:13;;;;;;;1.95;0.75;;;17.60;99.90;;;;;;5033781;28;20049;-72
2022/08/31 07:31:45;;;;;;;2.65;0.80;;;17.70;99.90;;;;;;5017810;28;20094;-73
2022/08/31 07:34:12;;;;;;;;;;;17.70;99.90;;;;;;5034194;28;20045;-72
2022/08/31 07:42:08;;;;;;;2.05;0.70;;;17.70;99.90;;;;;;5025308;28;19921;-73
2022/08/31 07:42:09;;;;;;;1.90;0.68;;;17.90;99.90;;;;;;5027028;28;20429;-73
2022/08/31 07:44:36;;;;;;;1.58;0.60;;;18.00;99.90;;;;;;5035772;28;20044;-73
2022/08/31 07:47:03;;;;;;;2.10;0.80;;;18.20;99.90;;;;;;5030848;28;20378;-72
2022/08/31 07:49:29;;;;;;;3.60;0.95;;;18.30;99.90;;;;;;5046500;28;20069;-73
2022/08/31 07:51:55;;;;;;;0.80;0.70;;;18.30;99.90;;;;;;5033795;28;20409;-73
2022/08/31 07:54:26;;;;;;;2.38;0.70;;;18.30;99.90;;;;;;5034229;28;20466;-72
2022/08/31 07:56:59;;;;;;;0.82;0.70;;;18.50;99.90;;;;;;5033062;28;20041;-73
2022/08/31 07:59:26;;;;;;;1.27;0.55;;;18.60;99.90;;;;;;5024834;28;20498;-73
2022/08/31 08:01:54;;;;;;;1.77;0.60;;;18.70;99.90;;;;;;5031653;28;20055;-72
2022/08/31 08:04:24;;;;;;;1.33;0.50;;;18.70;99.90;;;;;;5001291;28;20049;-72
2022/08/31 08:06:54;;;;;;;1.42;0.60;;;18.80;99.90;;;;;;5027393;28;20045;-73
2022/08/31 08:09:24;;;;;;;1.80;0.60;;;19.00;99.90;;;;;;5048874;28;20429;-73
2022/08/31 08:11:56;;;;;;;1.10;1.00;;;19.20;99.90;;;;;;5029688;28;20084;-72
2022/08/31 08:14:24;;;;;;;0.77;0.52;;;19.30;99.90;;;;;;5033177;28;20049;-73
2022/08/31 08:16:50;;;;;;;0.77;0.68;;;19.80;99.90;;;;;;5033662;28;20134;-73
2022/08/31 08:19:16;;;;;;;2.67;0.60;;;19.40;99.90;;;;;;5029936;28;20151;-73
2022/08/31 08:21:43;;;;;;;3.47;1.00;;;19.40;99.90;;;;;;5029959;28;20472;-74
2022/08/31 08:24:09;;;;;;;2.53;0.60;;;19.50;99.90;;;;;;5026625;28;20124;-73
2022/08/31 08:26:36;;;;;;;0.60;0.50;;;19.50;99.90;;;;;;5010149;28;20049;-73
2022/08/31 08:29:04;;;;;;;1.35;0.60;;;19.60;99.90;;;;;;5013166;28;20037;-73
2022/08/31 08:31:31;;;;;;;1.48;0.60;;;19.60;99.90;;;;;;5033191;28;20076;-73
2022/08/31 08:33:57;;;;;;;1.20;0.43;;;19.70;99.90;;;;;;4999872;28;20041;-73
2022/08/31 08:36:23;;;;;;;1.33;0.70;;;19.90;99.90;;;;;;5030871;28;20069;-73
2022/08/31 08:38:52;;;;;;;1.75;0.65;;;19.90;99.90;;;;;;5016929;28;20091;-73
2022/08/31 08:41:27;;;;;;;2.80;0.60;;;20.10;99.90;;;;;;5033054;28;20386;-73
2022/08/31 08:43:57;;;;;;;1.10;0.73;;;20.10;99.90;;;;;;5016231;28;20053;-73
2022/08/31 08:46:31;;;;;;;0.63;0.57;;;20.10;99.90;;;;;;5027566;28;20048;-73
2022/08/31 08:48:59;;;;;;;1.13;0.82;;;20.10;99.90;;;;;;5043029;28;20436;-74
2022/08/31 08:51:37;;;;;;;1.33;0.60;;;20.10;99.90;;;;;;5029747;28;20041;-74
2022/08/31 08:54:09;;;;;;;0.90;0.70;;;20.10;99.90;;;;;;5032540;28;20068;-72
2022/08/31 08:56:40;;;;;;;0.93;0.50;;;20.20;99.90;;;;;;5014755;28;20049;-73
2022/08/31 08:59:07;;;;;;;;;;;20.40;99.90;;;;;;5032974;28;20520;-74
2022/08/31 09:01:36;;;;;;;0.82;0.57;;;20.40;99.90;;;;;;5032517;28;20265;-73
2022/08/31 09:04:46;;;;;;;2.95;0.70;;;20.50;99.90;;;;;;5032492;28;20051;-73
2022/08/31 09:07:49;;;;;;;1.25;0.73;;;20.50;99.90;;;;;;5032206;28;20137;-73
2022/08/31 09:10:37;;;;;;;1.90;0.90;;;20.60;99.90;;;;;;5012355;28;20049;-73
2022/08/31 09:13:08;;;;;;;1.90;0.70;;;20.60;99.90;;;;;;5013000;28;20077;-73
2022/08/31 09:16:03;;;;;;;1.20;0.70;;;20.60;99.90;;;;;;5012931;28;20056;-73
2022/08/31 09:18:38;;;;;;;1.70;0.70;;;20.60;99.90;;;;;;5012749;28;20081;-73
2022/08/31 09:21:24;;;;;;;1.45;0.70;;;20.70;99.90;;;;;;5012783;28;20092;-73
2022/08/31 09:24:09;;;;;;;1.50;0.68;;;20.80;99.90;;;;;;5013277;28;20052;-73
2022/08/31 09:26:59;;;;;;;2.17;0.60;;;20.80;98.60;;;;;;5029728;28;20482;-74
2022/08/31 09:29:30;;;;;;;0.80;0.60;;;20.60;98.70;;;;;;5031242;28;20041;-73
2022/08/31 09:32:08;;;;;;;2.67;0.85;;;20.80;99.60;;;;;;5015612;28;20042;-72
2022/08/31 09:34:40;;;;;;;1.80;0.70;;;20.80;98.60;;;;;;5031437;28;20089;-73
2022/08/31 09:37:21;;;;;;;2.30;0.60;;;20.80;98.60;;;;;;5014294;28;20491;-74
2022/08/31 09:39:49;;;;;;;5.85;0.70;;;20.80;98.40;;;;;;5009747;28;20060;-72
2022/08/31 09:42:30;;;;;;;3.55;0.60;;;20.60;97.60;;;;;;5012450;28;20132;-73
2022/08/31 09:45:04;;;;;;;13.38;1.10;;;20.80;97.80;;;;;;5011938;28;20145;-74
2022/08/31 09:47:47;;;;;;;2.83;0.80;;;20.90;98.00;;;;;;5012369;28;20050;-72
2022/08/31 09:50:44;;;;;;;3.13;0.60;;;21.20;97.80;;;;;;5015502;28;20045;-73
2022/08/31 09:56:14;;;;;;;3.88;0.70;;;21.50;97.30;;;;;;5030799;28;20056;-73
2022/08/31 09:58:47;;;;;;;5.93;0.80;;;21.40;97.10;;;;;;5030932;28;20081;-73
2022/08/31 10:01:20;;;;;;;7.10;1.05;;;21.50;96.90;;;;;;5031365;28;20042;-73
2022/08/31 10:03:48;;;;;;;8.15;1.02;;;21.60;97.00;;;;;;5040307;28;20132;-73
2022/08/31 10:06:58;;;;;;;3.63;0.60;;;21.80;97.40;;;;;;5031195;28;20088;-72
2022/08/31 10:09:37;;;;;;;5.70;0.75;;;22.00;94.50;;;;;;4973897;28;20447;-72
2022/08/31 10:12:12;;;;;;;4.80;0.70;;;21.80;94.00;;;;;;5028432;28;20083;-74
2022/08/31 10:14:49;;;;;;;2.15;0.52;;;21.60;94.20;;;;;;5030976;28;20142;-74
2022/08/31 10:17:34;;;;;;;0.88;0.60;;;21.60;94.70;;;;;;5031362;28;20395;-73
2022/08/31 10:20:22;;;;;;;2.60;0.60;;;21.90;94.30;;;;;;5012111;28;20366;-73
2022/08/31 10:22:56;;;;;;;2.83;0.50;;;22.10;91.80;;;;;;5013324;28;20041;-73
2022/08/31 10:25:32;;;;;;;1.45;0.40;;;22.10;92.80;;;;;;5029382;28;20587;-73
2022/08/31 10:28:40;;;;;;;1.08;0.60;;;22.20;92.80;;;;;;5014141;28;20079;-74
2022/08/31 10:31:19;;;;;;;1.30;0.60;;;22.30;90.00;;;;;;4992253;28;20045;-75
2022/08/31 10:36:48;;;;;;;2.58;0.60;;;22.30;86.40;;;;;;5045547;28;20049;-74
2022/08/31 10:39:40;;;;;;;1.33;0.60;;;22.20;89.50;;;;;;5031588;28;20041;-74
2022/08/31 10:42:16;;;;;;;4.45;0.60;;;22.30;85.80;;;;;;5028953;28;20509;-74
2022/08/31 10:44:55;;;;;;;3.10;0.60;;;22.50;84.90;;;;;;5030854;28;20033;-74
2022/08/31 10:47:28;;;;;;;1.90;0.77;;;22.50;85.30;;;;;;5031269;28;20041;-73
2022/08/31 10:49:57;;;;;;;1.02;0.65;;;22.60;84.70;;;;;;5030902;28;20048;-73
2022/08/31 10:52:32;;;;;;;1.85;0.55;;;22.70;83.50;;;;;;5010731;28;20045;-73
2022/08/31 10:55:11;;;;;;;0.80;0.60;;;22.90;83.10;;;;;;5027059;28;20045;-73
2022/08/31 10:57:53;;;;;;;2.45;0.52;;;23.10;81.90;;;;;;5014597;28;20053;-74
2022/08/31 11:00:44;;;;;;;0.52;0.50;;;23.20;77.70;;;;;;5030524;28;20053;-73
2022/08/31 11:03:45;;;;;;;1.48;0.60;;;23.40;79.80;;;;;;5012426;28;20127;-72
2022/08/31 11:06:26;;;;;;;0.88;0.60;;;23.50;77.80;;;;;;5027629;28;20042;-73
2022/08/31 11:09:13;;;;;;;2.83;0.68;;;23.60;76.60;;;;;;5033839;28;20041;-73
2022/08/31 11:11:56;;;;;;;0.60;0.50;;;23.90;73.00;;;;;;5034142;28;20053;-73
2022/08/31 11:14:44;;;;;;;0.65;0.60;;;24.00;74.10;;;;;;5033722;28;20501;-74
2022/08/31 11:17:37;;;;;;;1.10;0.70;;;24.10;73.80;;;;;;5030325;28;20049;-74
2022/08/31 11:20:09;;;;;;;1.02;0.73;;;24.20;69.20;;;;;;5034823;28;20077;-73
2022/08/31 11:22:38;;;;;;;0.70;0.70;;;24.10;70.20;;;;;;5032286;28;20053;-72
2022/08/31 11:25:54;;;;;;;2.75;0.52;;;24.30;70.90;;;;;;5030078;28;20095;-74
2022/08/31 11:28:32;;;;;;;1.05;0.60;;;24.30;67.40;;;;;;5031184;28;20119;-74
2022/08/31 11:31:22;;;;;;;3.25;0.60;;;24.40;67.60;;;;;;5032001;28;20124;-73
2022/08/31 11:34:06;;;;;;;1.40;0.60;;;24.40;67.20;;;;;;5028801;28;20042;-73
2022/08/31 11:36:55;;;;;;;1.58;0.63;;;24.30;68.00;;;;;;5017883;28;20041;-73
2022/08/31 11:39:29;;;;;;;0.68;0.60;;;24.30;66.00;;;;;;5031167;28;20045;-73
2022/08/31 11:41:57;;;;;;;1.20;0.50;;;24.40;67.70;;;;;;5030984;28;20044;-73
2022/08/31 11:44:30;;;;;;;2.13;0.60;;;24.60;66.00;;;;;;5013986;28;20041;-72
2022/08/31 11:47:06;;;;;;;0.80;0.43;;;24.40;63.20;;;;;;5044235;28;20159;-73
2022/08/31 11:49:48;;;;;;;1.00;0.60;;;24.60;63.70;;;;;;5003152;28;20056;-73
2022/08/31 11:52:23;;;;;;;0.85;0.65;;;24.80;64.50;;;;;;5033906;28;20125;-73
2022/08/31 11:54:49;;;;;;;1.95;0.60;;;24.80;63.30;;;;;;5033157;28;20112;-73
2022/08/31 11:57:23;;;;;;;2.05;0.57;;;24.80;65.00;;;;;;5028961;28;20365;-73
2022/08/31 11:59:50;;;;;;;1.17;0.50;;;24.80;62.20;;;;;;5027568;28;20072;-73
2022/08/31 12:02:22;;;;;;;1.65;0.60;;;25.00;63.30;;;;;;5027802;28;20045;-73
2022/08/31 12:05:05;;;;;;;1.08;0.60;;;25.10;62.90;;;;;;5026936;28;20065;-73
2022/08/31 12:07:35;;;;;;;1.48;0.60;;;25.20;60.10;;;;;;5027157;28;20049;-74
2022/08/31 12:10:04;;;;;;;13.65;0.85;;;25.40;62.30;;;;;;5024076;28;20136;-74
2022/08/31 12:12:54;;;;;;;0.90;0.50;;;25.50;62.50;;;;;;5025679;28;20041;-74
2022/08/31 12:15:40;;;;;;;1.08;0.57;;;25.70;59.00;;;;;;5029858;28;20369;-73
2022/08/31 12:18:33;;;;;;;2.17;0.70;;;26.00;58.60;;;;;;4986226;28;20102;-73
2022/08/31 12:24:08;;;;;;;0.85;0.50;;;26.60;58.50;;;;;;5033637;28;20136;-74
2022/08/31 12:27:11;;;;;;;0.60;0.57;;;26.90;61.50;;;;;;5032584;28;20124;-74
2022/08/31 12:29:39;;;;;;;1.67;0.50;;;27.20;56.10;;;;;;5032139;28;20033;-73
2022/08/31 12:32:23;;;;;;;1.60;0.55;;;27.20;59.30;;;;;;5033112;28;20045;-74
2022/08/31 12:35:17;;;;;;;1.23;0.50;;;27.40;55.80;;;;;;5033335;28;20041;-72
2022/08/31 12:37:43;;;;;;;0.95;0.60;;;27.30;56.30;;;;;;5010963;28;20359;-71
2022/08/31 12:40:12;;;;;;;0.57;0.50;;;27.60;58.20;;;;;;5033001;28;20034;-71
2022/08/31 12:43:01;;;;;;;2.05;0.80;;;27.80;56.10;;;;;;5033146;28;20053;-72
2022/08/31 12:45:39;;;;;;;1.50;0.50;;;28.20;53.10;;;;;;5015620;28;20081;-72
2022/08/31 12:48:42;;;;;;;0.80;0.70;;;28.80;55.40;;;;;;5047774;28;20466;-72
2022/08/31 12:51:46;;;;;;;1.38;0.50;;;28.90;51.50;;;;;;5031891;28;20037;-71
2022/08/31 12:54:27;;;;;;;0.60;0.60;;;28.60;50.50;;;;;;5033009;28;20048;-71
2022/08/31 12:57:05;;;;;;;1.67;0.70;;;28.80;51.20;;;;;;5032644;28;20037;-72
2022/08/31 12:59:35;;;;;;;1.25;0.60;;;28.70;50.90;;;;;;5014704;28;20041;-71
2022/08/31 13:02:01;;;;;;;0.82;0.55;;;29.10;52.10;;;;;;5031638;28;20044;-72
2022/08/31 13:04:27;;;;;;;0.50;0.50;;;29.60;52.00;;;;;;5016156;28;20205;-71
2022/08/31 13:06:53;;;;;;;0.70;0.47;;;30.10;51.40;;;;;;5015613;28;20042;-71
2022/08/31 13:09:34;;;;;;;1.77;0.52;;;30.30;50.00;;;;;;5009248;28;20484;-71
2022/08/31 13:12:01;;;;;;;0.85;0.50;;;30.60;47.80;;;;;;5026538;28;20155;-72
2022/08/31 13:14:40;;;;;;;1.85;0.73;;;30.70;48.20;;;;;;5031954;28;20079;-71
2022/08/31 13:17:20;;;;;;;0.60;0.60;;;30.30;46.00;;;;;;5031099;28;20033;-72
2022/08/31 13:19:49;;;;;;;1.88;0.80;;;31.00;46.80;;;;;;5013675;28;20041;-72
2022/08/31 13:22:23;;;;;;;1.60;0.60;;;30.80;47.30;;;;;;5032597;28;20077;-71
2022/08/31 13:24:51;;;;;;;2.05;0.65;;;31.00;46.70;;;;;;5032225;28;20378;-72